Change Date:Time:

Metar of : 1/23/2018 1500UTC
Metar
F1.TAF OPFA 2318/2412 VRB03KT 4000 FU NSC TX19/2410Z TN06/2401Z BECMG 2401/2405 1000 BR BECMG 2405/2409 05005KT 3000 FU FM240900 11005KT 4000 FU NSC
L1.TAF OPLA 2318/2424 34005KT 4000 FU SCT100 TX15/2410Z TN06/2401Z BECMG 2400/2404 09003KT 1500 BR BECMG 2404/2406 15005KT 3000 FU NSC FM240600 12005KT 4000 FU NSC
L2.TAF OPLA 2318/2403 34005KT 4000 FU NSC TN06/2401Z BECMG 2400/2403 09003KT 1500 BR
OPAP BW 36002KT 1400 FU NSC 13/09 Q1011 77%
OPAS 00000KT 3000 SCT120 00//M10 49%
OPBDN 231500U 00000KT 500 cavck 20/10 Q10119 RH52%
OPBJ 09002KT 6000 SCT040 FEW120 06/M12 25%
OPBKN 231500Z 31002KT 0500 NSC 13/M02 RH37%
OPBKR 00000KT 5000 FU NSC 15/09 68%
OPBL 231500Z 13004KT 6000 NSC 21/05 RH37%
OPBR 05002KT 6000 SCT040 SCT100 14/08 67%
OPBW 231500Z 00000KT 2000 FU NSC 15/10 7%
OPCK 00000Kt 7000 NSC 08/04 74%
OPCL 00000KT 6000 NSC 09/M07 RH33% OPDIK 00000KT 2000 FU NSC 15/09 Q1012 68%
OPDG 13004KT 4000 HZ NSC 13/04 Q1011 55%
OPDIR 1500Z 00000KT 6000 S K C 10/-04 36%
OPDU 231500Z 00000KT 6000 FU NSC 18/08 RH 5d%
OPFA 00000KT 4000 FU NSC 11/08 Q1013 NOSIG RH 81%
OPGD 231500Z 00000KT 6000 NSC 18/06 Q1014 RH45%
OPGP 00000KT 7000 SCT040 BKN100 11/04 62%
OPGPS 00000KT 4000 NSC 02/M12 RH37%
OPGT 00000KT 3000 SCT100 01/M07 Q1013 56%
OPGW 05004KT 5000 FU BKN110 10/09 87%
OPHQ 00000KT 4000 FU SCT100 10/05 Q1014 RH 75%
OPJBD 00000kt 3000 BR NSC 11/09 87%
OPJD 231500Z 00000KT 6000HZ NSC 20/05 Q1011 RH39%
OPJG 00000KT 5000 FU NSC 13/09 Q1013 77%
OPJI 231500Z 23004KT 4000 HZ SKC 24/14 Q1014 RH53%
OPJM 00000KT 6000 SCT040 AKN100 13/08 71%
OPKAD 00000KT 6000 NSC 14/08 67%
OPKC 231500Z 23004KT 7000 NSC 22/07 Q1012 RH39%
OPKD 231500U 00000KT 6000 NSC 19/07 Q1012 RH46% NO SIG
OPKE 231500U 31002KT 6000 SKC 18/09 Q1012 RH58%
OPKL 00000KT 6000 SCT040 BKN10 11/05 70%
OPKLT 231500Z 00000kt 5000 03/-05 7990 02/0
OPKP 231500Z 00000KT 4000 FU NSC 16/10 69%
OPKRL 00000KT 4000 FU NSC 16/06 50%
OPKS 00000KT 3000 BR SCT040 BKN100 12/11 94%
OPLA 05004KT 4000 FU SCT100 10/08 Q1012 A2986 NOSIG RH 87%
OPLRK 231500Z 18002KT 6000 NSC 19/10 Q1012 RH55%
OPMA 00000KT 3500 FU FEW040 SCT100 12/06 Q1014 65%
OPMB 00000KT 2000 BR SCT120 11/09 Q1015 87%
OPME 36002KT 8000 NSC 03/M01 77%
OPMF 00000KT 7000 SCT033 SCT100 11/02 54%
OPMIT 231500Z 00000KT 6000 NSC 19/04 Q1011 RH38%
OPMJ 231500Z 00000KT 3000 NSC 15/08 Q1011 RH63% TEMPO 2000 BR
OPMPK 231500Z 03102KT V7000 skc 18/08 Q1017 RH52%
OPMT 00000KT 2500 FU NSC 15/09 Q1011 NOSIG RH68%
OPNH 231500Z 31504KT 4000 FU NSC 21/10 Q1011 RH49% NOSIG
OPNK 231500Z 00000KT 8000 SKC 16/M12 Q1013 14%
OPNPT 00000KT 6000 NSC 13/09 77%
OPOK 31002KT 4000 FU SCT040 SCT100 13/09 Q1013 77%
OPPDN 231500Z 31002Kt 4000 nsc 18/11 Q1011 RH62%
OPPG 231500Z 00000KT 5000 HZ SkC 14/M06 Q1018 RH26%
OPPI 231500Z 23005KT 3000 fu SKC T24/12 Q1013 RH49%
OPPS 05004KT 2500 HZ SKC 12/03 Q1011
OPQT 23004KT CAVOK QBB FEW200 05/M10 Q1019 RH 31%
OPRK 00000KT 3000 FU NSC 16/10 Q1012 69%
OPRN 23004KT 4000 HZ NSC 11/05 Q1013 A29.93 RH65% NOSIG
OPRRI 231500Z 00000KT 6000 NSC HZ 19/11 P1P1 0025
OPRT 00000KT 6000 SCT040 OVC100 04/01 Q1017 85%
OPSD 00000KT 6000 BKN100 01/M02 Q1016 83%
OPSG 00000KT 3000 BR NSC 12/10 88%
OPSK 231500Z 00000KT 4000 HZ NSC 16/08 Q1011 NOSIG
OPSKT 00000KT 3000 BR SCT035 BKN100 09/08 93%
OPSS 1500Z 00000KT 4000 SKC 10/00 52%
OPST 31004KT 4000 FU SCT040 SCT100 10/08 Q1013 NOSIG RH87%
OPSW 31004KT 2000 FU NSC 13/09 Q1012 77%
OPTS 00000KT 2000 BR NSC 12/09 82%
OPTU 231500Z 09006KT 5000 SKC 22/-00 Q1014 RH23%
OPUG 00000KT 2000 FU SCT100 12/08 76%
OPZB 231500Z 18005kt 6000SKC 08/-08 1018 RH31%
PS. TAF OPPS 231500Z 2318/2303 23006KT 2500 HZ SCT200
PS1. ROBEX TAF OPPS 231530Z 2318/2424 23008KT 3000 HZ SCT200 2403/2406 2500 TEMPO 2412/2414 2500
QT.1 TAF OPQT 231500Z 2318/2403 16010KT 6000 FEW100 SCT200
QT.2 TAF OPQT 231530Z 2318/2424 16010KT 6000 FEW100 SCT200 TEMPO 2406/2415 31015KT CAVOK QBB FEW100 SCT200
RN1. TAF OPRN 231500Z 2318/2403 23010KT 4000 HZ SCT200
RN2. ROBEX TAF OPRN 231530Z 2318/2424 23010KT 4000 HZ SCT200 TEMPO 2403/2406 2000 BR NSC BECMG 2409/2411 4000 HZ NSC
CodeW.DirSpeedVisibilityCloud ConditionTempPressureHumidityStation
OPAP36002KT1400mHaze13oC1011hp77%B-PUR A/P
OPAS00000KT3000mPartly Cloudy00oC49%ASTORE
OPBJ09002KT6000mPartly Cloudy06oC25%BUNJI
OPBKR00000KT5000mHaze15oC68%Bhakkar
OPBR05002KT6000mPartly Cloudy14oC67%Bahawalnagar
OPBW00000KT2000mHaze15oCBahawalpur
OPCK00000KT7000mClear08oC74%Chakwal
OPCL00000KT6000mClear09oC68%Chilas
OPDG13004KT4000mHaze13oC1011hp55%D-G-KHAN
OPFA00000KT4000mHaze11oC1013hp81%Faisalabad
OPGD00000KT6000mClear18oC1014hp45%Gawadar
OPGP00000KT7000mPartly Cloudy11oC62%GARHI DOPATTA
OPGT00000KT3000mPartly Cloudy01oC1013hp56%Gilgit
OPGW05004KT5000mCloudy10oC87%Gujranwala
OPHQ00000KT4000mPartly Cloudy10oC1014hp75%Islamabad
OPJBD00000KT3000mMist11oC87%Joharabad
OPJG00000KT5000mHaze13oC1013hp77%Jhang
OPJI23004KT4000mHaze24oC1014hp53%Jiwani
OPJM00000KT6000mPartly Cloudy13oC71%Jhelum
OPKAD00000KT6000mClear14oC67%KOT ADDU
OPKC23004KT7000mClear22oC1012hp39%KARACHI A/P
OPKD00000KT6000mClear19oC1012hp46%Hyderabad
OPKE31002KT6000mClear18oC1012hp58%Chhor
OPKL00000KT6000mPartly Cloudy11oC70%Kotli
OPKP00000KT4000mHaze16oC69%Khanpur
OPKRL00000KT4000mHaze16oC50%KAROR (LAYYAH)
OPKS00000KT3000mMist12oC94%Kasur
OPLA05004KT4000mPartly Cloudy10oC1012hp87%LAHORE A/P
OPMA00000KT3500mPartly Cloudy12oC1014hp65%Mangla
OPMB00000KT2000mMist11oC1015hp87%MANDI BAHUDDIN
OPME36002KT8000mClear03oC77%Murree
OPMF00000KT7000mPartly Cloudy11oC54%MUZAFFARABAD
OPMJ00000KT3000mMist15oC1011hp63%MOHENJO DARO
OPMT00000KT2500mHaze15oC1011hp68%Multan
OPNH31504KT4000mHaze21oC1011hpSh Benazirabad
OPNPT00000KT6000mClear13oC77%NOOR PUR THAL
OPOK31002KT4000mPartly Cloudy13oC1013hp77%Okara
OPPG00000KT5000mHaze14oC1018hp26%Panjgur
OPPI23005KT3000mHaze24oC1013hp49%Pasni
OPPS05004KT2500mHaze12oC1011hpPeshawar
OPQT23004KTPartly Cloudy05oC1019hp31%Quetta
OPRK00000KT3000mHaze16oC1012hp69%R-Y-KHAN
OPRN23004KT4000mHaze11oC1013hp65%CHAKLALA- RAWALPINDI
OPRT00000KT6000mPartly Cloudy04oC1017hp85%Rawalakot
OPSD00000KT6000mCloudy01oC1016hp83%Skardu
OPSK00000KT4000mHaze16oC1011hpSukkur
OPSS00000KT4000mClear10oC52%SAIDU SHARIF
OPST31004KT4000mPartly Cloudy10oC1013hp87%SIAL A/P SIALKOT
OPSW31004KT2000mHaze13oC1012hp77%Sahiwal
OPTS00000KT2000mMist12oC82%T.T. SINGH
OPTU09006KT5000mClear22oC1014hp23%Turbat
OPUG00000KT2000mPartly Cloudy12oC76%Gujrat